createdAt,value
2018-12-06T00:01:38.398Z,37.30
2018-12-06T00:04:42.134Z,37.30
2018-12-06T00:07:57.074Z,37.30
2018-12-06T00:11:00.838Z,37.30
2018-12-06T00:14:04.647Z,37.40
2018-12-06T00:17:08.339Z,37.40
2018-12-06T00:20:12.002Z,37.40
2018-12-06T00:23:15.752Z,38.10
2018-12-06T00:26:19.405Z,37.50
2018-12-06T00:29:23.137Z,37.40
2018-12-06T00:32:26.806Z,37.40
2018-12-06T00:35:30.534Z,37.50
2018-12-06T00:38:34.190Z,37.60
2018-12-06T00:41:37.982Z,37.50
2018-12-06T00:44:41.633Z,37.50
2018-12-06T00:47:45.410Z,37.60
2018-12-06T00:50:49.068Z,37.50
2018-12-06T00:53:52.818Z,37.60
2018-12-06T00:56:56.475Z,37.60
2018-12-06T01:00:00.214Z,37.60
2018-12-06T01:03:04.038Z,37.60
2018-12-06T01:06:07.823Z,37.60
2018-12-06T01:09:12.503Z,37.60
2018-12-06T01:12:16.266Z,37.80
2018-12-06T01:15:19.934Z,37.90
2018-12-06T01:18:24.120Z,37.80
2018-12-06T01:21:27.782Z,37.90
2018-12-06T01:24:31.571Z,37.80
2018-12-06T01:27:35.274Z,37.80
2018-12-06T01:30:39.028Z,37.80
2018-12-06T01:33:42.716Z,37.80
2018-12-06T01:36:46.467Z,37.80
2018-12-06T01:39:50.142Z,37.90
2018-12-06T01:42:53.922Z,37.80
2018-12-06T01:45:57.637Z,37.80
2018-12-06T01:49:01.410Z,37.70
2018-12-06T01:52:05.106Z,37.70
2018-12-06T01:55:08.882Z,37.70
2018-12-06T01:58:12.551Z,37.60
2018-12-06T02:01:16.258Z,37.70
2018-12-06T02:04:19.910Z,37.60
2018-12-06T02:07:23.562Z,37.60
2018-12-06T02:10:27.222Z,37.70
2018-12-06T02:13:31.019Z,37.60
2018-12-06T02:16:35.194Z,37.60
2018-12-06T02:19:38.850Z,37.70
2018-12-06T02:22:42.522Z,37.70
2018-12-06T02:25:46.178Z,37.80
2018-12-06T02:28:50.209Z,37.90
2018-12-06T02:31:53.893Z,37.90
2018-12-06T02:34:57.542Z,37.90
2018-12-06T02:38:01.216Z,37.90
2018-12-06T02:41:04.918Z,37.90
2018-12-06T02:44:08.825Z,37.90
2018-12-06T02:47:12.723Z,37.80
2018-12-06T02:50:16.630Z,37.80
2018-12-06T02:53:20.690Z,37.90
2018-12-06T02:56:24.559Z,37.80
2018-12-06T02:59:28.478Z,37.80
2018-12-06T03:02:32.380Z,37.80
2018-12-06T03:05:36.297Z,37.70
2018-12-06T03:08:40.227Z,37.70
2018-12-06T03:11:44.198Z,37.60
2018-12-06T03:14:48.137Z,37.50
2018-12-06T03:17:52.046Z,37.60
2018-12-06T03:20:55.963Z,38.00
2018-12-06T03:23:59.870Z,38.90
2018-12-06T03:27:03.778Z,38.40
2018-12-06T03:30:07.797Z,38.30
2018-12-06T03:33:11.712Z,38.40
2018-12-06T03:36:15.624Z,38.30
2018-12-06T03:39:19.537Z,38.40
2018-12-06T03:42:23.750Z,38.30
2018-12-06T03:45:27.662Z,38.10
2018-12-06T03:48:31.593Z,38.80
2018-12-06T03:51:35.587Z,38.40
2018-12-06T03:54:39.504Z,38.00
2018-12-06T03:57:43.429Z,37.40
2018-12-06T04:00:47.326Z,37.90
2018-12-06T04:03:51.254Z,37.80
2018-12-06T04:06:55.142Z,37.70
2018-12-06T04:09:59.066Z,37.60
2018-12-06T04:13:02.969Z,37.60
2018-12-06T04:16:06.885Z,37.70
2018-12-06T04:19:10.796Z,37.70
2018-12-06T04:22:14.705Z,37.60
2018-12-06T04:25:18.621Z,37.60
2018-12-06T04:28:22.547Z,37.60
2018-12-06T04:31:26.445Z,37.60
2018-12-06T04:34:30.358Z,37.60
2018-12-06T04:38:05.498Z,37.40
2018-12-06T04:41:09.418Z,37.30
2018-12-06T04:44:13.326Z,37.80
2018-12-06T04:47:17.247Z,37.40
2018-12-06T04:50:21.144Z,37.30
2018-12-06T04:53:25.062Z,37.50
2018-12-06T04:56:29.080Z,38.00
2018-12-06T04:59:33.003Z,37.20
2018-12-06T05:02:36.848Z,37.30
2018-12-06T05:05:40.825Z,37.30
2018-12-06T05:08:44.718Z,37.30
2018-12-06T05:11:48.646Z,37.40
2018-12-06T05:14:52.551Z,38.20
2018-12-06T05:17:56.462Z,37.50
2018-12-06T05:21:00.374Z,37.60
2018-12-06T05:24:04.277Z,37.70
2018-12-06T05:27:08.190Z,37.70
2018-12-06T05:30:12.112Z,38.00
2018-12-06T05:33:16.034Z,38.10
2018-12-06T05:36:20.034Z,38.40
2018-12-06T05:39:23.946Z,38.70
2018-12-06T05:42:27.856Z,38.80
2018-12-06T05:45:32.026Z,38.90
2018-12-06T05:48:35.981Z,39.00
2018-12-06T05:51:39.909Z,39.00
2018-12-06T05:54:43.814Z,38.90
2018-12-06T05:57:48.295Z,38.90
2018-12-06T06:00:52.355Z,38.80
2018-12-06T06:03:56.258Z,38.70
2018-12-06T06:07:01.976Z,38.70
2018-12-06T06:10:06.233Z,39.00
2018-12-06T06:13:10.150Z,38.40
2018-12-06T06:16:14.059Z,38.50
2018-12-06T06:19:17.966Z,38.30
2018-12-06T06:22:21.890Z,38.40
2018-12-06T06:25:25.807Z,38.20
2018-12-06T06:28:29.706Z,38.00
2018-12-06T06:31:33.613Z,38.00
2018-12-06T06:34:37.546Z,38.40
2018-12-06T06:37:41.440Z,37.60
2018-12-06T06:40:45.351Z,37.40
2018-12-06T06:43:49.265Z,37.30
2018-12-06T06:46:53.760Z,36.70
2018-12-06T06:49:57.701Z,37.30
2018-12-06T06:53:01.631Z,37.10
2018-12-06T06:56:05.530Z,37.20
2018-12-06T06:59:09.442Z,37.10
2018-12-06T07:02:13.354Z,37.10
2018-12-06T07:05:17.278Z,37.10
2018-12-06T07:08:21.190Z,37.20
2018-12-06T07:11:25.082Z,37.10
2018-12-06T07:14:29.229Z,36.90
2018-12-06T07:17:33.125Z,37.50
2018-12-06T07:20:37.030Z,36.70
2018-12-06T07:23:41.042Z,36.80
2018-12-06T07:26:44.999Z,36.70
2018-12-06T07:29:49.070Z,37.30
2018-12-06T07:32:53.002Z,36.60
2018-12-06T07:35:56.899Z,37.20
2018-12-06T07:39:00.885Z,36.60
2018-12-06T07:42:04.931Z,36.60
2018-12-06T07:45:08.938Z,36.40
2018-12-06T07:48:12.862Z,36.40
2018-12-06T07:51:16.758Z,36.40
2018-12-06T07:54:20.670Z,36.70
2018-12-06T07:57:24.590Z,37.10
2018-12-06T08:00:28.511Z,37.50
2018-12-06T08:03:32.411Z,35.80
2018-12-06T08:06:36.321Z,33.40
2018-12-06T08:09:40.230Z,33.70
2018-12-06T08:12:44.138Z,33.30
2018-12-06T08:15:48.070Z,32.00
2018-12-06T08:18:51.967Z,32.60
2018-12-06T08:21:55.898Z,33.30
2018-12-06T08:24:59.909Z,35.10
2018-12-06T08:28:03.882Z,34.30
2018-12-06T08:31:07.829Z,34.40
2018-12-06T08:34:11.730Z,34.50
2018-12-06T08:37:15.643Z,34.60
2018-12-06T08:40:19.559Z,34.70
2018-12-06T08:43:23.491Z,34.90
2018-12-06T08:46:27.396Z,35.00
2018-12-06T08:49:31.305Z,35.20
2018-12-06T08:52:35.238Z,34.90
2018-12-06T08:55:39.158Z,36.30
2018-12-06T08:58:43.051Z,35.80
2018-12-06T09:01:46.756Z,35.90
2018-12-06T09:04:50.435Z,36.10
2018-12-06T09:07:54.126Z,36.30
2018-12-06T09:10:58.218Z,36.30
2018-12-06T09:14:02.198Z,36.20
2018-12-06T09:17:05.910Z,36.20
2018-12-06T09:20:09.884Z,36.20
2018-12-06T09:23:13.536Z,36.30
2018-12-06T09:26:17.203Z,36.30
2018-12-06T09:29:21.010Z,36.60
2018-12-06T09:32:24.818Z,36.70
2018-12-06T09:35:28.474Z,36.80
2018-12-06T09:38:32.213Z,36.90
2018-12-06T09:41:35.966Z,36.90
2018-12-06T09:44:39.614Z,37.00
2018-12-06T09:47:43.867Z,37.10
2018-12-06T09:50:47.597Z,37.10
2018-12-06T09:53:51.862Z,37.30
2018-12-06T09:56:56.586Z,38.50
2018-12-06T10:00:00.486Z,38.00
2018-12-06T10:03:04.383Z,37.90
2018-12-06T10:06:08.048Z,37.90
2018-12-06T10:09:11.773Z,38.10
2018-12-06T10:12:15.494Z,38.00
2018-12-06T10:15:19.190Z,37.90
2018-12-06T10:18:22.913Z,37.80
2018-12-06T10:21:26.855Z,37.70
2018-12-06T10:24:30.853Z,37.80
2018-12-06T10:27:34.550Z,38.00
2018-12-06T10:30:38.199Z,37.00
2018-12-06T10:33:41.930Z,37.70
2018-12-06T10:36:45.591Z,41.60
2018-12-06T10:39:50.610Z,39.70
2018-12-06T10:42:54.614Z,38.30
2018-12-06T10:45:58.278Z,39.30
2018-12-06T10:49:01.967Z,39.60
2018-12-06T10:52:05.658Z,39.20
2018-12-06T10:55:09.336Z,39.10
2018-12-06T10:58:13.166Z,39.00
2018-12-06T11:01:21.411Z,39.00
2018-12-06T11:04:29.370Z,39.00
2018-12-06T11:07:33.022Z,37.70
2018-12-06T11:10:36.881Z,37.00
2018-12-06T11:13:40.534Z,38.20
2018-12-06T11:16:44.227Z,39.10
2018-12-06T11:19:47.882Z,39.40
2018-12-06T11:22:51.601Z,39.60
2018-12-06T11:25:55.291Z,39.70
2018-12-06T11:28:58.985Z,39.70
2018-12-06T11:32:02.645Z,39.60
2018-12-06T11:35:06.370Z,39.60
2018-12-06T11:38:10.026Z,40.30
2018-12-06T11:41:13.719Z,39.60
2018-12-06T11:44:17.375Z,39.60
2018-12-06T11:47:21.062Z,38.40
2018-12-06T11:50:24.710Z,36.40
2018-12-06T11:53:28.494Z,36.40
2018-12-06T11:56:32.146Z,37.30
2018-12-06T11:59:35.838Z,38.00
2018-12-06T12:02:39.505Z,38.40
2018-12-06T12:05:43.197Z,38.60
2018-12-06T12:08:46.842Z,38.80
2018-12-06T12:11:50.542Z,38.80
2018-12-06T12:14:54.222Z,38.90
2018-12-06T12:17:57.965Z,39.00
2018-12-06T12:21:01.624Z,39.10
2018-12-06T12:24:05.550Z,38.60
2018-12-06T12:27:09.239Z,38.50
2018-12-06T12:30:13.051Z,38.30
2018-12-06T12:33:16.696Z,38.00
2018-12-06T12:36:20.457Z,37.80
2018-12-06T12:39:24.110Z,37.40
2018-12-06T12:42:27.804Z,37.40
2018-12-06T12:45:31.450Z,37.40
2018-12-06T12:48:35.170Z,37.30
2018-12-06T12:51:38.817Z,37.10
2018-12-06T12:54:42.574Z,37.10
2018-12-06T12:57:46.320Z,37.00
2018-12-06T13:00:50.020Z,36.80
2018-12-06T13:03:54.110Z,36.70
2018-12-06T13:07:06.346Z,36.70
2018-12-06T13:10:10.035Z,36.70
2018-12-06T13:13:13.805Z,36.50
2018-12-06T13:16:17.471Z,36.60
2018-12-06T13:19:21.310Z,36.60
2018-12-06T13:22:24.998Z,36.60
2018-12-06T13:25:28.808Z,36.50
2018-12-06T13:28:32.457Z,36.60
2018-12-06T13:31:36.264Z,36.50
2018-12-06T13:34:39.970Z,37.00
2018-12-06T13:37:43.738Z,37.00
2018-12-06T13:40:47.427Z,37.00
2018-12-06T13:43:51.192Z,37.20
2018-12-06T13:46:54.836Z,37.30
2018-12-06T13:49:58.606Z,37.60
2018-12-06T13:53:02.295Z,37.60
2018-12-06T13:56:06.014Z,37.60
2018-12-06T13:59:09.669Z,37.70
2018-12-06T14:02:13.333Z,37.70
2018-12-06T14:05:17.015Z,37.70
2018-12-06T14:08:20.668Z,37.70
2018-12-06T14:11:24.317Z,37.60
2018-12-06T14:14:27.990Z,37.40
2018-12-06T14:17:31.646Z,37.30
2018-12-06T14:20:35.438Z,37.30
2018-12-06T14:23:39.102Z,37.30
2018-12-06T14:26:42.750Z,37.40
2018-12-06T14:29:46.394Z,37.30
2018-12-06T14:32:50.052Z,37.50
2018-12-06T14:35:53.702Z,37.30
2018-12-06T14:38:57.369Z,37.40
2018-12-06T14:42:01.011Z,37.40
2018-12-06T14:45:06.078Z,37.90
2018-12-06T14:48:10.495Z,37.40
2018-12-06T14:51:14.430Z,37.40
2018-12-06T14:54:18.335Z,37.40
2018-12-06T14:57:22.251Z,37.50
2018-12-06T15:00:26.172Z,37.60
2018-12-06T15:03:30.074Z,37.50
2018-12-06T15:06:37.524Z,37.60
2018-12-06T15:09:40.153Z,37.60
2018-12-06T15:12:44.066Z,37.50
2018-12-06T15:15:48.066Z,37.50
2018-12-06T15:18:52.020Z,37.40
2018-12-06T15:21:55.906Z,37.30
2018-12-06T15:25:00.171Z,37.20
2018-12-06T15:28:04.204Z,37.30
2018-12-06T15:31:08.254Z,37.30
2018-12-06T15:34:12.162Z,37.30
2018-12-06T15:37:16.074Z,37.50
2018-12-06T15:40:20.089Z,37.50
2018-12-06T15:43:24.004Z,37.50
2018-12-06T15:46:28.071Z,37.60
2018-12-06T15:49:32.059Z,37.60
2018-12-06T15:52:36.163Z,37.50
2018-12-06T15:55:40.090Z,37.50
2018-12-06T15:58:43.981Z,37.50
2018-12-06T16:01:47.886Z,37.50
2018-12-06T16:04:51.811Z,37.60
2018-12-06T16:07:55.709Z,37.70
2018-12-06T16:10:59.766Z,37.60
2018-12-06T16:14:03.838Z,37.60
2018-12-06T16:17:07.864Z,37.60
2018-12-06T16:20:11.723Z,37.60
2018-12-06T16:23:15.689Z,37.60
2018-12-06T16:26:19.590Z,37.60
2018-12-06T16:29:23.569Z,37.60
2018-12-06T16:32:27.511Z,37.70
2018-12-06T16:35:31.429Z,37.60
2018-12-06T16:38:35.310Z,37.70
2018-12-06T16:41:39.530Z,37.70
2018-12-06T16:44:43.693Z,37.60
2018-12-06T16:47:47.591Z,37.60
2018-12-06T16:50:51.642Z,36.30
2018-12-06T16:53:56.958Z,36.70
2018-12-06T16:57:00.964Z,36.90
2018-12-06T17:00:07.543Z,36.80
2018-12-06T17:03:11.483Z,36.90
2018-12-06T17:06:15.358Z,36.90
2018-12-06T17:09:19.275Z,37.00
2018-12-06T17:12:23.178Z,37.00
2018-12-06T17:15:27.094Z,37.00
2018-12-06T17:18:30.999Z,37.00
2018-12-06T17:21:34.918Z,37.10
2018-12-06T17:24:38.830Z,37.90
2018-12-06T17:27:42.753Z,37.40
2018-12-06T17:30:47.031Z,37.60
2018-12-06T17:33:51.562Z,37.60
2018-12-06T17:36:55.508Z,37.60
2018-12-06T17:39:59.415Z,37.50
2018-12-06T17:43:03.339Z,37.50
2018-12-06T17:46:07.313Z,37.40
2018-12-06T17:49:11.871Z,37.20
2018-12-06T17:52:15.792Z,37.10
2018-12-06T17:55:19.694Z,37.00
2018-12-06T17:58:23.576Z,36.80
2018-12-06T18:01:28.449Z,36.80
2018-12-06T18:04:32.463Z,36.70
2018-12-06T18:07:36.371Z,36.70
2018-12-06T18:10:40.727Z,36.70
2018-12-06T18:13:45.047Z,36.60
2018-12-06T18:16:49.711Z,36.60
2018-12-06T18:19:54.074Z,36.70
2018-12-06T18:22:58.230Z,36.70
2018-12-06T18:26:02.276Z,36.70
2018-12-06T18:29:06.332Z,36.70
2018-12-06T18:32:16.336Z,36.70
2018-12-06T18:35:20.798Z,36.70
2018-12-06T18:38:25.057Z,36.70
2018-12-06T18:41:29.019Z,36.80
2018-12-06T18:44:33.519Z,37.00
2018-12-06T18:47:37.467Z,37.00
2018-12-06T18:50:41.514Z,37.00
2018-12-06T18:53:45.870Z,37.00
2018-12-06T18:56:51.051Z,37.00
2018-12-06T18:59:55.272Z,37.00
2018-12-06T19:02:59.527Z,37.00
2018-12-06T19:06:03.679Z,37.00
2018-12-06T19:09:07.854Z,37.00
2018-12-06T19:12:11.821Z,37.00
2018-12-06T19:15:15.782Z,37.00
2018-12-06T19:18:19.762Z,37.10
2018-12-06T19:21:23.694Z,37.00
2018-12-06T19:24:27.957Z,37.00
2018-12-06T19:27:31.957Z,37.10
2018-12-06T19:30:37.263Z,37.10
2018-12-06T19:33:41.406Z,36.50
2018-12-06T19:36:46.391Z,36.30
2018-12-06T19:39:50.370Z,36.50
2018-12-06T19:42:54.830Z,36.70
2018-12-06T19:45:58.798Z,36.80
2018-12-06T19:49:02.768Z,37.00
2018-12-06T19:52:06.994Z,37.10
2018-12-06T19:55:10.906Z,37.30
2018-12-06T19:58:15.150Z,37.30
2018-12-06T20:01:19.102Z,37.50
2018-12-06T20:04:23.120Z,37.60
2018-12-06T20:07:27.054Z,37.70
2018-12-06T20:10:31.114Z,37.80
2018-12-06T20:13:34.979Z,38.00
2018-12-06T20:16:39.270Z,38.00
2018-12-06T20:19:43.230Z,38.10
2018-12-06T20:22:47.158Z,38.10
2018-12-06T20:25:51.056Z,38.10
2018-12-06T20:28:55.082Z,38.10
2018-12-06T20:31:59.057Z,38.20
2018-12-06T20:35:03.005Z,38.90
2018-12-06T20:38:06.895Z,38.30
2018-12-06T20:41:11.513Z,38.20
2018-12-06T20:44:15.170Z,38.30
2018-12-06T20:47:20.217Z,37.80
2018-12-06T20:50:24.254Z,37.30
2018-12-06T20:53:28.277Z,38.00
2018-12-06T20:56:32.526Z,43.80
2018-12-06T20:59:36.578Z,45.50
2018-12-06T21:02:41.441Z,47.50
2018-12-06T21:05:49.000Z,47.30
2018-12-06T21:08:53.476Z,46.90
2018-12-06T21:11:58.241Z,46.10
2018-12-06T21:15:02.228Z,45.70
2018-12-06T21:18:06.267Z,45.10
2018-12-06T21:21:10.258Z,44.40
2018-12-06T21:24:14.150Z,43.30
2018-12-06T21:27:18.074Z,42.70
2018-12-06T21:30:21.970Z,42.30
2018-12-06T21:33:26.106Z,41.80
2018-12-06T21:36:30.106Z,41.80
2018-12-06T21:39:34.010Z,41.10
2018-12-06T21:42:37.950Z,40.80
2018-12-06T21:45:41.951Z,41.20
2018-12-06T21:48:45.854Z,39.20
2018-12-06T21:51:49.883Z,39.20
2018-12-06T21:54:53.878Z,39.30
2018-12-06T21:57:57.798Z,38.00
2018-12-06T22:01:01.719Z,37.80
2018-12-06T22:04:05.722Z,38.80
2018-12-06T22:07:09.642Z,38.10
2018-12-06T22:10:13.666Z,38.30
2018-12-06T22:13:17.562Z,38.80
2018-12-06T22:16:21.471Z,39.20
2018-12-06T22:19:25.389Z,39.80
2018-12-06T22:22:29.299Z,40.20
2018-12-06T22:25:33.414Z,40.70
2018-12-06T22:28:37.434Z,41.00
2018-12-06T22:31:41.438Z,41.40
2018-12-06T22:34:45.347Z,41.50
2018-12-06T22:37:49.282Z,42.50
2018-12-06T22:40:53.659Z,42.40
2018-12-06T22:43:57.707Z,41.80
2018-12-06T22:47:01.611Z,41.70
2018-12-06T22:50:05.834Z,41.80
2018-12-06T22:53:09.742Z,41.80
2018-12-06T22:56:13.679Z,41.80
2018-12-06T22:59:17.707Z,41.70
2018-12-06T23:02:21.799Z,41.70
2018-12-06T23:05:25.726Z,41.70
2018-12-06T23:08:29.633Z,41.70
2018-12-06T23:11:33.743Z,41.70
2018-12-06T23:14:37.638Z,41.60
2018-12-06T23:17:42.854Z,41.70
2018-12-06T23:20:46.807Z,40.60
2018-12-06T23:23:52.691Z,43.20
2018-12-06T23:26:56.665Z,46.30
2018-12-06T23:36:26.433Z,58.20
2018-12-06T23:39:30.538Z,61.00
2018-12-06T23:42:34.510Z,62.20
2018-12-06T23:45:38.465Z,62.00
2018-12-06T23:48:42.382Z,61.90
2018-12-06T23:51:46.290Z,61.00
2018-12-06T23:54:50.198Z,61.70
2018-12-06T23:57:54.139Z,62.90
